createdAt,value
2022-11-20T00:01:34.868Z,21.52
2022-11-20T00:04:02.944Z,21.20
2022-11-20T00:06:31.382Z,20.67
2022-11-20T00:09:01.508Z,20.23
2022-11-20T00:11:31.305Z,19.10
2022-11-20T00:14:02.805Z,18.17
2022-11-20T00:19:02.147Z,17.33
2022-11-20T00:21:31.315Z,18.58
2022-11-20T00:24:00.175Z,17.45
2022-11-20T00:26:29.358Z,18.15
2022-11-20T00:29:01.141Z,17.63
2022-11-20T00:31:31.264Z,20.40
2022-11-20T00:33:59.226Z,20.80
2022-11-20T00:36:30.188Z,18.50
2022-11-20T00:38:59.608Z,19.65
2022-11-20T00:41:30.034Z,17.93
2022-11-20T00:43:58.753Z,18.73
2022-11-20T00:46:29.025Z,21.10
2022-11-20T00:48:57.845Z,16.27
2022-11-20T00:51:28.775Z,17.88
2022-11-20T00:54:01.153Z,17.45
2022-11-20T00:59:01.154Z,15.93
2022-11-20T01:01:31.040Z,16.75
2022-11-20T01:04:01.408Z,18.08
2022-11-20T01:06:33.461Z,18.67
2022-11-20T01:09:06.237Z,14.43
2022-11-20T01:11:40.017Z,15.75
2022-11-20T01:14:15.167Z,13.93
2022-11-20T01:16:47.076Z,14.18
2022-11-20T01:19:18.959Z,13.32
2022-11-20T01:21:50.776Z,14.88
2022-11-20T01:24:21.912Z,15.57
2022-11-20T01:26:51.986Z,14.23
2022-11-20T01:29:25.470Z,14.10
2022-11-20T01:31:54.110Z,14.50
2022-11-20T01:34:23.624Z,14.50
2022-11-20T01:36:52.905Z,12.50
2022-11-20T01:39:25.270Z,13.23
2022-11-20T01:42:14.228Z,12.45
2022-11-20T01:44:53.251Z,13.48
2022-11-20T01:47:40.817Z,11.93
2022-11-20T01:50:30.140Z,9.75
2022-11-20T01:53:06.401Z,11.25
2022-11-20T01:55:40.520Z,12.40
2022-11-20T01:58:09.682Z,6.65
2022-11-20T02:00:37.752Z,9.75
2022-11-20T02:03:11.046Z,9.10
2022-11-20T02:06:25.153Z,11.77
2022-11-20T02:08:54.066Z,9.25
2022-11-20T02:11:22.498Z,10.50
2022-11-20T02:13:51.099Z,9.57
2022-11-20T02:16:38.967Z,9.75
2022-11-20T02:19:28.558Z,10.70
2022-11-20T02:22:20.530Z,10.48
2022-11-20T02:27:18.118Z,9.68
2022-11-20T02:30:00.259Z,11.93
2022-11-20T02:32:33.332Z,11.65
2022-11-20T02:35:27.378Z,11.45
2022-11-20T02:37:57.858Z,13.57
2022-11-20T02:40:26.564Z,14.02
2022-11-20T02:42:56.943Z,10.50
2022-11-20T02:45:25.447Z,10.48
2022-11-20T02:47:54.030Z,13.05
2022-11-20T02:50:22.208Z,13.45
2022-11-20T02:52:50.233Z,8.25
2022-11-20T02:55:18.129Z,10.80
2022-11-20T02:57:46.393Z,13.68
2022-11-20T03:00:14.932Z,13.48
2022-11-20T03:02:44.207Z,13.63
2022-11-20T03:05:12.578Z,14.20
2022-11-20T03:07:40.382Z,13.45
2022-11-20T03:10:09.079Z,9.25
2022-11-20T03:12:37.338Z,13.02
2022-11-20T03:15:05.895Z,14.13
2022-11-20T03:17:33.771Z,13.65
2022-11-20T03:20:02.226Z,11.85
2022-11-20T03:22:31.258Z,13.20
2022-11-20T03:24:59.211Z,12.15
2022-11-20T03:27:27.366Z,12.43
2022-11-20T03:29:55.623Z,13.20
2022-11-20T03:32:23.528Z,13.15
2022-11-20T03:34:51.523Z,12.98
2022-11-20T03:37:20.194Z,10.07
2022-11-20T03:39:48.003Z,11.75
2022-11-20T03:42:34.614Z,13.93
2022-11-20T03:45:02.565Z,12.43
2022-11-20T03:47:30.433Z,12.55
2022-11-20T03:49:58.334Z,9.30
2022-11-20T03:52:26.076Z,11.80
2022-11-20T03:54:54.053Z,13.63
2022-11-20T03:57:22.238Z,13.45
2022-11-20T03:59:49.976Z,13.60
2022-11-20T04:02:19.780Z,12.20
2022-11-20T04:04:47.956Z,12.57
2022-11-20T04:07:15.776Z,14.10
2022-11-20T04:09:43.836Z,14.00
2022-11-20T04:12:11.922Z,12.18
2022-11-20T04:14:39.744Z,11.63
2022-11-20T04:17:07.632Z,12.30
2022-11-20T04:19:35.722Z,13.82
2022-11-20T04:22:03.775Z,13.23
2022-11-20T04:24:31.739Z,11.90
2022-11-20T04:26:59.629Z,13.43
2022-11-20T04:29:27.480Z,13.40
2022-11-20T04:31:55.820Z,13.75
2022-11-20T04:34:23.766Z,13.48
2022-11-20T04:36:51.620Z,14.48
2022-11-20T04:39:20.074Z,13.50
2022-11-20T04:41:48.673Z,14.73
2022-11-20T04:44:16.547Z,12.50
2022-11-20T04:46:44.434Z,12.82
2022-11-20T04:49:13.122Z,13.07
2022-11-20T04:51:41.065Z,13.50
2022-11-20T04:54:11.928Z,12.88
2022-11-20T04:56:39.900Z,13.63
2022-11-20T04:59:07.655Z,12.38
2022-11-20T05:01:35.777Z,13.32
2022-11-20T05:04:03.902Z,13.15
2022-11-20T05:06:31.707Z,12.60
2022-11-20T05:08:59.961Z,14.05
2022-11-20T05:11:30.254Z,14.07
2022-11-20T05:14:00.905Z,13.95
2022-11-20T05:16:28.879Z,12.53
2022-11-20T05:18:57.452Z,13.18
2022-11-20T05:21:25.426Z,13.05
2022-11-20T05:23:53.404Z,13.02
2022-11-20T05:26:23.400Z,14.23
2022-11-20T05:28:52.183Z,14.40
2022-11-20T05:31:27.021Z,16.38
2022-11-20T05:33:58.312Z,16.38
2022-11-20T05:36:26.336Z,18.38
2022-11-20T05:38:59.694Z,14.50
2022-11-20T05:41:30.086Z,13.25
2022-11-20T05:43:59.598Z,13.98
2022-11-20T05:46:29.276Z,12.07
2022-11-20T05:48:59.154Z,12.48
2022-11-20T05:51:28.347Z,12.52
2022-11-20T05:53:59.772Z,12.75
2022-11-20T05:56:27.925Z,14.13
2022-11-20T05:58:55.888Z,14.43
2022-11-20T06:01:27.106Z,13.52
2022-11-20T06:03:57.224Z,12.70
2022-11-20T06:06:27.108Z,13.82
2022-11-20T06:08:56.609Z,13.98
2022-11-20T06:11:24.595Z,13.65
2022-11-20T06:13:52.862Z,13.02
2022-11-20T06:16:21.540Z,12.05
2022-11-20T06:18:49.799Z,11.05
2022-11-20T06:21:23.212Z,14.30
2022-11-20T06:23:53.596Z,13.38
2022-11-20T06:26:24.769Z,14.70
2022-11-20T06:28:53.935Z,15.43
2022-11-20T06:31:24.837Z,12.13
2022-11-20T06:33:53.737Z,15.48
2022-11-20T06:36:24.017Z,14.40
2022-11-20T06:38:52.178Z,8.68
2022-11-20T06:41:22.766Z,13.43
2022-11-20T06:43:51.432Z,12.85
2022-11-20T06:46:21.232Z,13.63
2022-11-20T06:48:50.845Z,13.57
2022-11-20T06:51:19.308Z,11.70
2022-11-20T06:53:47.484Z,12.75
2022-11-20T06:56:15.687Z,11.95
2022-11-20T06:58:43.860Z,9.10
2022-11-20T07:01:15.131Z,9.55
2022-11-20T07:03:45.214Z,10.20
2022-11-20T07:06:13.206Z,10.15
2022-11-20T07:08:41.449Z,11.40
2022-11-20T07:11:09.629Z,10.88
2022-11-20T07:13:37.606Z,11.65
2022-11-20T07:16:09.384Z,10.45
2022-11-20T07:18:37.716Z,8.38
2022-11-20T07:21:11.104Z,9.95
2022-11-20T07:23:39.408Z,10.07
2022-11-20T07:26:10.436Z,10.90
2022-11-20T07:28:39.382Z,7.07
2022-11-20T07:31:08.604Z,10.63
2022-11-20T07:33:36.580Z,9.20
2022-11-20T07:36:05.299Z,11.00
2022-11-20T07:38:33.392Z,9.32
2022-11-20T07:41:04.264Z,9.70
2022-11-20T07:43:34.819Z,7.57
2022-11-20T07:46:06.598Z,10.38
2022-11-20T07:48:36.185Z,8.90
2022-11-20T07:51:04.185Z,8.82
2022-11-20T07:53:32.125Z,10.15
2022-11-20T07:56:04.512Z,9.35
2022-11-20T07:58:35.500Z,9.52
2022-11-20T08:01:09.283Z,9.25
2022-11-20T08:03:40.677Z,10.70
2022-11-20T08:06:09.090Z,9.93
2022-11-20T08:08:42.425Z,9.88
2022-11-20T08:11:29.917Z,8.55
2022-11-20T08:14:13.362Z,8.20
2022-11-20T08:16:47.691Z,9.05
2022-11-20T08:19:18.835Z,9.40
2022-11-20T08:24:15.445Z,9.60
2022-11-20T08:26:43.659Z,8.95
2022-11-20T08:29:11.869Z,9.50
2022-11-20T08:31:40.150Z,13.07
2022-11-20T08:34:09.620Z,9.20
2022-11-20T08:36:38.431Z,11.63
2022-11-20T08:39:06.468Z,11.27
2022-11-20T08:41:34.936Z,9.90
2022-11-20T08:44:09.071Z,10.00
2022-11-20T08:46:39.400Z,11.65
2022-11-20T08:49:12.661Z,10.68
2022-11-20T08:51:42.550Z,8.63
2022-11-20T08:54:11.174Z,10.82
2022-11-20T08:56:39.493Z,11.05
2022-11-20T08:59:27.054Z,10.00
2022-11-20T09:01:56.489Z,9.25
2022-11-20T09:04:24.549Z,9.52
2022-11-20T09:06:53.264Z,9.90
2022-11-20T09:09:21.847Z,10.05
2022-11-20T09:11:51.297Z,10.50
2022-11-20T09:14:19.530Z,11.45
2022-11-20T09:16:48.145Z,10.00
2022-11-20T09:22:04.642Z,9.18
2022-11-20T09:24:34.288Z,8.98
2022-11-20T09:27:06.584Z,10.45
2022-11-20T09:29:34.779Z,8.52
2022-11-20T09:32:02.944Z,8.57
2022-11-20T09:34:31.084Z,9.63
2022-11-20T09:37:01.632Z,8.95
2022-11-20T09:39:33.111Z,10.20
2022-11-20T09:42:42.839Z,9.13
2022-11-20T09:45:24.138Z,10.38
2022-11-20T09:48:07.418Z,10.48
2022-11-20T09:50:55.943Z,9.68
2022-11-20T09:54:00.446Z,8.80
2022-11-20T09:56:30.372Z,8.65
2022-11-20T09:59:06.177Z,7.10
2022-11-20T10:01:39.765Z,9.70
2022-11-20T10:04:20.828Z,10.07
2022-11-20T10:07:34.709Z,9.60
2022-11-20T10:10:02.876Z,9.20
2022-11-20T10:12:46.335Z,10.57
2022-11-20T10:15:42.084Z,11.00
2022-11-20T10:18:41.918Z,13.13
2022-11-20T10:21:24.329Z,10.82
2022-11-20T10:24:32.290Z,10.40
2022-11-20T10:28:11.793Z,10.02
2022-11-20T10:30:44.976Z,7.53
2022-11-20T10:33:24.928Z,9.48
2022-11-20T10:36:17.795Z,9.77
2022-11-20T10:38:55.976Z,10.07
2022-11-20T10:41:41.587Z,9.57
2022-11-20T10:44:52.329Z,9.98
2022-11-20T10:47:23.926Z,9.95
2022-11-20T10:49:58.492Z,9.13
2022-11-20T10:53:06.383Z,10.88
2022-11-20T10:56:21.270Z,12.65
2022-11-20T10:59:13.569Z,14.48
2022-11-20T11:01:44.036Z,16.20
2022-11-20T11:04:42.301Z,14.30
2022-11-20T11:07:25.728Z,12.13
2022-11-20T11:09:57.304Z,8.55
2022-11-20T11:12:28.492Z,11.70
2022-11-20T11:14:58.880Z,9.52
2022-11-20T11:17:32.364Z,9.43
2022-11-20T11:20:05.326Z,8.77
2022-11-20T11:22:46.252Z,8.82
2022-11-20T11:25:36.958Z,7.50
2022-11-20T11:28:26.978Z,8.75
2022-11-20T11:30:57.175Z,10.35
2022-11-20T11:33:31.831Z,9.43
2022-11-20T11:36:05.890Z,10.60
2022-11-20T11:38:44.320Z,9.80
2022-11-20T11:41:22.116Z,10.45
2022-11-20T11:44:20.888Z,10.00
2022-11-20T11:46:56.873Z,10.52
2022-11-20T11:49:25.599Z,11.18
2022-11-20T11:52:05.097Z,11.85
2022-11-20T11:54:45.240Z,13.90
2022-11-20T11:58:10.873Z,14.43
2022-11-20T12:00:46.703Z,10.57
2022-11-20T12:03:28.450Z,10.48
2022-11-20T12:06:06.882Z,10.23
2022-11-20T12:08:44.371Z,11.57
2022-11-20T12:11:25.447Z,10.57
2022-11-20T12:14:35.349Z,10.95
2022-11-20T12:17:04.077Z,10.85
2022-11-20T12:19:35.793Z,10.63
2022-11-20T12:25:03.867Z,10.77
2022-11-20T12:28:12.908Z,10.95
2022-11-20T12:30:54.291Z,11.10
2022-11-20T12:33:45.956Z,10.45
2022-11-20T12:36:45.422Z,9.95
2022-11-20T12:39:35.190Z,10.63
2022-11-20T12:43:18.466Z,9.32
2022-11-20T12:46:12.549Z,9.98
2022-11-20T12:48:49.236Z,10.80
2022-11-20T12:51:43.690Z,8.00
2022-11-20T12:54:39.303Z,8.70
2022-11-20T12:57:34.762Z,11.07
2022-11-20T13:00:16.675Z,10.23
2022-11-20T13:02:57.227Z,8.63
2022-11-20T13:06:11.598Z,9.40
2022-11-20T13:08:49.744Z,9.40
2022-11-20T13:11:49.030Z,9.95
2022-11-20T13:14:48.867Z,8.57
2022-11-20T13:17:37.310Z,11.13
2022-11-20T13:20:14.081Z,9.90
2022-11-20T13:22:50.329Z,10.95
2022-11-20T13:25:38.874Z,10.25
2022-11-20T13:28:31.319Z,11.20
2022-11-20T13:31:00.416Z,10.30
2022-11-20T13:33:38.996Z,10.02
2022-11-20T13:36:30.058Z,11.32
2022-11-20T13:38:58.554Z,9.95
2022-11-20T13:41:39.203Z,13.75
2022-11-20T13:44:15.577Z,12.65
2022-11-20T13:46:47.290Z,11.57
2022-11-20T13:51:52.073Z,10.68
2022-11-20T13:55:03.224Z,11.30
2022-11-20T13:58:23.461Z,12.60
2022-11-20T14:01:32.622Z,13.15
2022-11-20T14:04:08.063Z,13.77
2022-11-20T14:06:45.341Z,12.85
2022-11-20T14:09:31.178Z,12.13
2022-11-20T14:11:59.722Z,11.68
2022-11-20T14:14:30.765Z,12.40
2022-11-20T14:17:10.872Z,12.35
2022-11-20T14:19:42.645Z,13.43
2022-11-20T14:24:40.045Z,11.70
2022-11-20T14:27:24.681Z,11.50
2022-11-20T14:29:53.397Z,13.23
2022-11-20T14:32:28.426Z,14.48
2022-11-20T14:35:08.025Z,14.32
2022-11-20T14:37:40.915Z,13.75
2022-11-20T14:40:26.834Z,14.00
2022-11-20T14:42:55.754Z,16.48
2022-11-20T14:45:24.981Z,15.35
2022-11-20T14:47:57.486Z,16.27
2022-11-20T14:50:30.535Z,15.60
2022-11-20T14:53:02.082Z,13.50
2022-11-20T14:55:34.674Z,14.43
2022-11-20T14:58:21.347Z,13.77
2022-11-20T15:01:08.904Z,14.45
2022-11-20T15:03:41.449Z,14.10
2022-11-20T15:06:13.856Z,13.50
2022-11-20T15:08:53.489Z,14.95
2022-11-20T15:11:33.634Z,16.38
2022-11-20T15:14:07.948Z,14.52
2022-11-20T15:16:36.102Z,16.33
2022-11-20T15:19:14.177Z,22.92
2022-11-20T15:21:42.367Z,18.98
2022-11-20T15:24:11.070Z,18.25
2022-11-20T15:26:44.305Z,14.52
2022-11-20T15:29:20.394Z,12.52
2022-11-20T15:31:48.665Z,15.80
2022-11-20T15:34:17.887Z,16.30
2022-11-20T15:36:46.884Z,16.60
2022-11-20T15:39:15.089Z,16.02
2022-11-20T15:41:43.219Z,17.65
2022-11-20T15:44:11.396Z,14.32
2022-11-20T15:46:46.401Z,13.98
2022-11-20T15:49:17.672Z,14.50
2022-11-20T15:51:49.945Z,13.82
2022-11-20T15:54:23.566Z,15.80
2022-11-20T15:56:55.629Z,13.35
2022-11-20T16:01:51.710Z,16.67
2022-11-20T16:04:20.048Z,17.40
2022-11-20T16:06:48.995Z,15.43
2022-11-20T16:09:17.494Z,17.27
2022-11-20T16:11:45.540Z,18.52
2022-11-20T16:14:32.409Z,17.52
2022-11-20T16:17:00.403Z,22.00
2022-11-20T16:19:28.421Z,17.80
2022-11-20T16:22:02.439Z,16.70
2022-11-20T16:24:31.252Z,17.10
2022-11-20T16:26:59.327Z,17.33
2022-11-20T16:29:27.183Z,19.17
2022-11-20T16:31:55.666Z,16.70
2022-11-20T16:34:24.024Z,17.00
2022-11-20T16:36:52.020Z,16.30
2022-11-20T16:39:23.720Z,14.48
2022-11-20T16:41:52.245Z,16.85
2022-11-20T16:44:20.535Z,20.90
2022-11-20T16:46:48.373Z,20.17
2022-11-20T16:49:16.434Z,21.65
2022-11-20T16:51:44.497Z,21.20
2022-11-20T16:54:21.273Z,20.50
2022-11-20T16:56:52.106Z,22.27
2022-11-20T16:59:20.055Z,20.73
2022-11-20T17:01:47.943Z,21.60
2022-11-20T17:04:16.395Z,22.30
2022-11-20T17:06:45.448Z,20.08
2022-11-20T17:09:14.012Z,17.38
2022-11-20T17:11:42.432Z,16.13
2022-11-20T17:14:12.092Z,15.88
2022-11-20T17:16:40.221Z,15.38
2022-11-20T17:19:08.574Z,16.00
2022-11-20T17:21:37.129Z,15.35
2022-11-20T17:24:08.373Z,14.85
2022-11-20T17:26:38.065Z,16.15
2022-11-20T17:29:19.038Z,17.65
2022-11-20T17:31:48.762Z,17.85
2022-11-20T17:34:17.325Z,17.08
2022-11-20T17:36:46.623Z,18.52
2022-11-20T17:39:17.657Z,17.05
2022-11-20T17:42:06.416Z,16.90
2022-11-20T17:44:35.460Z,18.30
2022-11-20T17:47:03.544Z,18.88
2022-11-20T17:49:31.619Z,21.63
2022-11-20T17:52:00.334Z,41.30
2022-11-20T17:54:28.329Z,27.27
2022-11-20T17:57:14.986Z,23.05
2022-11-20T17:59:43.418Z,23.67
2022-11-20T18:02:11.391Z,28.77
2022-11-20T18:04:39.475Z,27.55
2022-11-20T18:07:07.605Z,28.35
2022-11-20T18:09:36.096Z,30.67
2022-11-20T18:12:04.559Z,23.85
2022-11-20T18:14:33.016Z,24.23
2022-11-20T18:17:13.001Z,26.65
2022-11-20T18:20:21.384Z,26.48
2022-11-20T18:22:38.692Z,25.88
2022-11-20T18:25:07.315Z,28.38
2022-11-20T18:27:35.516Z,28.83
2022-11-20T18:30:03.970Z,25.50
2022-11-20T18:32:34.229Z,26.13
2022-11-20T18:35:02.415Z,28.75
2022-11-20T18:37:32.373Z,31.27
2022-11-20T18:40:00.441Z,36.40
2022-11-20T18:42:47.328Z,32.50
2022-11-20T18:45:15.594Z,47.92
2022-11-20T18:47:44.284Z,46.67
2022-11-20T18:50:12.448Z,41.90
2022-11-20T18:52:48.027Z,36.08
2022-11-20T18:55:17.901Z,31.08
2022-11-20T18:57:45.964Z,30.00
2022-11-20T19:00:14.732Z,28.20
2022-11-20T19:02:43.552Z,27.83
2022-11-20T19:05:15.066Z,29.85
2022-11-20T19:07:43.852Z,26.42
2022-11-20T19:10:12.169Z,23.00
2022-11-20T19:12:40.650Z,19.85
2022-11-20T19:15:09.628Z,18.23
2022-11-20T19:17:38.118Z,18.42
2022-11-20T19:20:07.226Z,17.67
2022-11-20T19:22:35.297Z,18.10
2022-11-20T19:25:03.473Z,17.75
2022-11-20T19:27:31.697Z,15.98
2022-11-20T19:30:03.746Z,15.85
2022-11-20T19:32:32.840Z,14.63
2022-11-20T19:35:00.909Z,13.38
2022-11-20T19:37:29.286Z,15.30
2022-11-20T19:39:59.874Z,14.70
2022-11-20T19:42:27.896Z,15.88
2022-11-20T19:44:58.504Z,15.70
2022-11-20T19:47:40.854Z,15.10
2022-11-20T19:50:16.259Z,15.57
2022-11-20T19:52:45.798Z,10.43
2022-11-20T19:55:13.931Z,11.27
2022-11-20T19:57:42.349Z,11.93
2022-11-20T20:00:12.459Z,12.63
2022-11-20T20:02:40.955Z,13.68
2022-11-20T20:05:10.225Z,15.02
2022-11-20T20:07:40.269Z,13.52
2022-11-20T20:10:09.294Z,15.07
2022-11-20T20:12:37.711Z,13.30
2022-11-20T20:15:09.504Z,12.32
2022-11-20T20:17:37.496Z,12.90
2022-11-20T20:20:06.542Z,15.20
2022-11-20T20:22:34.951Z,13.75
2022-11-20T20:25:03.014Z,14.70
2022-11-20T20:27:31.817Z,14.55
2022-11-20T20:30:00.337Z,15.70
2022-11-20T20:32:28.617Z,13.35
2022-11-20T20:34:57.844Z,12.02
2022-11-20T20:37:26.363Z,14.82
2022-11-20T20:39:56.193Z,14.38
2022-11-20T20:42:27.958Z,13.02
2022-11-20T20:45:11.802Z,14.15
2022-11-20T20:47:43.217Z,13.13
2022-11-20T20:50:13.326Z,13.77
2022-11-20T20:52:42.769Z,11.95
2022-11-20T20:55:11.414Z,12.27
2022-11-20T20:57:39.474Z,15.30
2022-11-20T21:00:09.137Z,16.13
2022-11-20T21:02:38.048Z,13.23
2022-11-20T21:05:06.576Z,12.90
2022-11-20T21:07:34.684Z,14.55
2022-11-20T21:10:03.168Z,15.70
2022-11-20T21:12:32.572Z,15.55
2022-11-20T21:15:00.772Z,12.35
2022-11-20T21:17:29.548Z,14.65
2022-11-20T21:19:57.744Z,15.60
2022-11-20T21:22:25.975Z,16.60
2022-11-20T21:24:54.265Z,20.23
2022-11-20T21:27:22.467Z,37.40
2022-11-20T21:29:50.391Z,20.75
2022-11-20T21:32:18.643Z,27.17
2022-11-20T21:34:46.634Z,17.73
2022-11-20T21:37:14.791Z,15.50
2022-11-20T21:39:50.978Z,16.13
2022-11-20T21:42:19.045Z,15.20
2022-11-20T21:44:48.229Z,13.60
2022-11-20T21:47:20.031Z,14.45
2022-11-20T21:49:48.757Z,14.32
2022-11-20T21:52:17.488Z,16.30
2022-11-20T21:54:45.629Z,15.40
2022-11-20T21:57:13.818Z,14.35
2022-11-20T21:59:41.676Z,14.57
2022-11-20T22:02:13.068Z,15.75
2022-11-20T22:04:41.961Z,13.25
2022-11-20T22:07:10.092Z,14.57
2022-11-20T22:09:38.374Z,12.48
2022-11-20T22:12:06.443Z,15.52
2022-11-20T22:14:34.427Z,15.50
2022-11-20T22:17:02.416Z,16.52
2022-11-20T22:19:30.551Z,28.27
2022-11-20T22:21:59.465Z,20.52
2022-11-20T22:24:27.944Z,19.90
2022-11-20T22:26:56.131Z,18.88
2022-11-20T22:29:24.003Z,25.70
2022-11-20T22:31:53.381Z,21.40
2022-11-20T22:34:22.055Z,24.05
2022-11-20T22:36:50.753Z,20.38
2022-11-20T22:39:18.930Z,14.52
2022-11-20T22:41:46.885Z,15.18
2022-11-20T22:44:16.463Z,15.82
2022-11-20T22:46:44.456Z,14.95
2022-11-20T22:49:12.796Z,14.43
2022-11-20T22:51:41.724Z,14.25
2022-11-20T22:54:12.891Z,13.07
2022-11-20T22:56:41.641Z,12.73
2022-11-20T22:59:09.879Z,13.40
2022-11-20T23:01:38.539Z,15.35
2022-11-20T23:04:10.511Z,13.35
2022-11-20T23:06:38.704Z,12.75
2022-11-20T23:09:08.268Z,14.27
2022-11-20T23:11:36.730Z,13.80
2022-11-20T23:14:12.097Z,14.05
2022-11-20T23:16:40.293Z,13.45
2022-11-20T23:19:12.248Z,16.88
2022-11-20T23:21:42.372Z,14.50
2022-11-20T23:24:10.707Z,15.57
2022-11-20T23:26:40.705Z,13.07
2022-11-20T23:29:08.891Z,14.02
2022-11-20T23:31:37.304Z,12.63
2022-11-20T23:34:05.816Z,13.20
2022-11-20T23:36:34.445Z,11.80
2022-11-20T23:39:02.572Z,11.70
2022-11-20T23:41:30.591Z,12.85
2022-11-20T23:43:58.603Z,12.25
2022-11-20T23:46:26.753Z,13.98
2022-11-20T23:48:54.685Z,12.65
2022-11-20T23:51:22.621Z,12.90
2022-11-20T23:53:50.573Z,11.02
2022-11-20T23:56:18.497Z,11.68
2022-11-20T23:58:46.389Z,12.18
